Time;durP1;ratioP1;P1;durP2;ratioP2;P2;SDS_P1;SDS_P2;PMS_P1;PMS_P2;Temp;Humidity;BMP_temperature;BMP_pressure;BME280_temperature;BME280_humidity;BME280_pressure;Samples;Min_cycle;Max_cycle;Signal;HPM_P1;HPM_P2
2022/06/08 00:01:21;;;;;;;6.97;3.17;;;13.30;99.90;;;;;;5049855;28;20235;-67
2022/06/08 00:03:53;;;;;;;4.97;3.10;;;13.30;99.90;;;;;;5052430;28;20572;-66
2022/06/08 00:06:21;;;;;;;5.07;3.40;;;13.30;99.90;;;;;;5053404;28;20702;-67
2022/06/08 00:08:50;;;;;;;8.07;3.73;;;13.20;99.90;;;;;;5058329;28;20298;-67
2022/06/08 00:11:19;;;;;;;4.57;3.13;;;13.20;99.90;;;;;;5049677;28;20223;-67
2022/06/08 00:13:49;;;;;;;5.77;3.47;;;13.20;99.90;;;;;;5054593;28;20218;-67
2022/06/08 00:16:18;;;;;;;5.00;3.13;;;13.30;99.90;;;;;;5056587;28;20706;-67
2022/06/08 00:18:47;;;;;;;5.63;3.30;;;13.30;99.90;;;;;;5058235;28;20303;-67
2022/06/08 00:21:16;;;;;;;4.67;3.30;;;13.20;99.90;;;;;;5053675;28;20289;-67
2022/06/08 00:23:45;;;;;;;5.03;3.37;;;13.20;99.90;;;;;;5054753;28;20594;-66
2022/06/08 00:26:14;;;;;;;6.13;3.53;;;13.10;99.90;;;;;;5055943;28;20235;-67
2022/06/08 00:28:42;;;;;;;6.30;3.57;;;13.10;99.90;;;;;;5046270;28;20276;-67
2022/06/08 00:31:12;;;;;;;4.90;3.60;;;13.10;99.90;;;;;;5051139;28;20238;-67
2022/06/08 00:33:46;;;;;;;6.63;3.60;;;13.10;99.90;;;;;;5054687;28;20694;-66
2022/06/08 00:36:15;;;;;;;5.17;3.50;;;13.00;99.90;;;;;;5054602;28;20277;-67
2022/06/08 00:38:43;;;;;;;4.23;3.43;;;13.00;99.90;;;;;;5054551;28;20735;-67
2022/06/08 00:41:36;;;;;;;7.90;3.50;;;13.00;99.90;;;;;;5052442;28;20297;-67
2022/06/08 00:44:10;;;;;;;5.50;4.00;;;13.00;99.90;;;;;;5035853;28;20243;-66
2022/06/08 00:46:43;;;;;;;5.43;3.73;;;13.00;99.90;;;;;;5034478;28;20228;-67
2022/06/08 00:49:20;;;;;;;7.37;3.50;;;13.00;99.90;;;;;;5056370;28;20675;-68
2022/06/08 00:51:48;;;;;;;8.10;4.10;;;13.00;99.90;;;;;;5060251;28;20224;-67
2022/06/08 00:54:21;;;;;;;6.03;4.00;;;12.90;99.90;;;;;;5038353;28;20223;-67
2022/06/08 00:56:54;;;;;;;5.20;4.17;;;12.90;99.90;;;;;;5045633;28;20242;-66
2022/06/08 00:59:23;;;;;;;5.23;3.90;;;12.90;99.90;;;;;;5050629;28;20287;-67
2022/06/08 01:01:52;;;;;;;6.47;4.30;;;12.80;99.90;;;;;;5053646;28;20237;-67
2022/06/08 01:04:23;;;;;;;6.13;4.17;;;12.80;99.90;;;;;;5054184;28;20235;-66
2022/06/08 01:06:57;;;;;;;8.60;4.63;;;12.80;99.90;;;;;;5059401;28;20598;-66
2022/06/08 01:09:31;;;;;;;6.00;4.47;;;12.70;99.90;;;;;;5055637;28;20225;-67
2022/06/08 01:12:03;;;;;;;5.40;4.10;;;12.70;99.90;;;;;;5055243;28;20691;-67
2022/06/08 01:14:36;;;;;;;5.37;4.13;;;12.70;99.90;;;;;;5058785;28;20245;-67
2022/06/08 01:17:09;;;;;;;6.40;4.40;;;12.70;99.90;;;;;;5073961;28;20254;-66
2022/06/08 01:19:41;;;;;;;5.37;4.33;;;12.80;99.90;;;;;;5058071;28;20281;-67
2022/06/08 01:22:15;;;;;;;6.67;4.40;;;12.70;99.90;;;;;;5053764;28;20588;-66
2022/06/08 01:24:54;;;;;;;5.73;4.43;;;12.70;99.90;;;;;;5053103;28;20776;-66
2022/06/08 01:27:40;;;;;;;6.83;4.80;;;12.70;99.90;;;;;;5054794;28;20223;-67
2022/06/08 01:30:20;;;;;;;6.97;4.80;;;12.70;99.90;;;;;;5050289;28;20691;-67
2022/06/08 01:33:19;;;;;;;6.10;4.87;;;12.60;99.90;;;;;;5047718;28;20396;-66
2022/06/08 01:35:58;;;;;;;6.00;4.90;;;12.60;99.90;;;;;;5049730;28;20276;-67
2022/06/08 01:38:39;;;;;;;6.07;4.97;;;12.60;99.90;;;;;;5064458;28;20227;-67
2022/06/08 01:41:31;;;;;;;6.37;4.83;;;12.60;99.90;;;;;;5051534;28;20226;-66
2022/06/08 01:44:11;;;;;;;5.37;4.70;;;12.70;99.90;;;;;;5033516;28;20236;-66
2022/06/08 01:46:44;;;;;;;7.13;5.20;;;12.60;99.90;;;;;;5033332;28;20239;-67
2022/06/08 01:49:22;;;;;;;7.17;4.90;;;12.50;99.90;;;;;;5057020;28;20234;-68
2022/06/08 01:52:03;;;;;;;6.80;5.60;;;12.50;99.90;;;;;;5047413;28;20229;-67
2022/06/08 01:54:47;;;;;;;8.17;5.07;;;12.50;99.90;;;;;;5052741;28;20233;-66
2022/06/08 01:57:26;;;;;;;7.17;4.73;;;12.60;99.90;;;;;;5054397;28;20319;-66
2022/06/08 02:00:20;;;;;;;8.23;5.27;;;12.60;99.90;;;;;;5043327;28;20258;-66
2022/06/08 02:03:01;;;;;;;6.30;5.13;;;12.50;99.90;;;;;;5054992;28;20287;-66
2022/06/08 02:05:43;;;;;;;8.87;5.40;;;12.40;99.90;;;;;;5055207;28;20872;-67
2022/06/08 02:08:22;;;;;;;5.57;4.90;;;12.40;99.90;;;;;;5054930;28;20226;-67
2022/06/08 02:10:56;;;;;;;7.33;4.90;;;12.40;99.90;;;;;;5049442;28;20364;-66
2022/06/08 02:13:33;;;;;;;6.23;4.67;;;12.30;99.90;;;;;;5054811;28;20281;-67
2022/06/08 02:16:09;;;;;;;6.13;5.30;;;12.20;99.90;;;;;;5055184;28;20570;-67
2022/06/08 02:18:44;;;;;;;5.57;4.43;;;12.20;99.90;;;;;;5054295;28;20336;-66
2022/06/08 02:21:17;;;;;;;6.47;5.20;;;12.20;99.90;;;;;;5049342;28;20313;-67
2022/06/08 02:23:52;;;;;;;6.13;5.10;;;12.10;99.90;;;;;;5068978;28;20318;-67
2022/06/08 02:26:27;;;;;;;5.93;4.93;;;12.20;99.90;;;;;;5052604;28;20246;-66
2022/06/08 02:28:59;;;;;;;5.10;4.57;;;12.10;99.90;;;;;;5051280;28;20227;-67
2022/06/08 02:31:32;;;;;;;5.00;4.50;;;12.20;99.90;;;;;;5065651;28;20266;-67
2022/06/08 02:37:12;;;;;;;6.97;5.37;;;12.20;99.90;;;;;;5051861;28;20230;-66
2022/06/08 02:39:47;;;;;;;5.13;4.63;;;12.20;99.90;;;;;;5048562;28;20698;-67
2022/06/08 02:42:45;;;;;;;5.40;4.90;;;12.10;99.90;;;;;;5052244;28;20729;-66
2022/06/08 02:45:21;;;;;;;6.53;5.17;;;12.10;99.90;;;;;;5053589;28;20258;-67
2022/06/08 02:48:15;;;;;;;5.37;4.60;;;12.10;99.90;;;;;;5053532;28;20607;-67
2022/06/08 02:50:51;;;;;;;5.63;4.80;;;12.00;99.90;;;;;;5045350;28;20627;-67
2022/06/08 02:53:56;;;;;;;6.03;5.03;;;12.20;99.90;;;;;;5069578;28;20233;-67
2022/06/08 02:56:55;;;;;;;5.50;4.80;;;12.10;99.90;;;;;;5039174;28;20233;-67
2022/06/08 02:59:34;;;;;;;6.00;5.37;;;12.20;99.90;;;;;;5048431;28;20830;-67
2022/06/08 03:02:10;;;;;;;6.17;5.47;;;12.10;99.90;;;;;;5051268;28;20238;-67
2022/06/08 03:04:46;;;;;;;6.57;5.67;;;12.10;99.90;;;;;;5050311;28;20271;-67
2022/06/08 03:07:19;;;;;;;6.90;6.20;;;12.00;99.90;;;;;;5052782;28;20234;-67
2022/06/08 03:10:14;;;;;;;9.37;5.97;;;12.00;99.90;;;;;;5045814;28;20246;-67
2022/06/08 03:12:52;;;;;;;7.43;6.83;;;12.20;99.90;;;;;;5075515;28;20699;-67
2022/06/08 03:15:51;;;;;;;7.93;6.20;;;12.10;99.90;;;;;;5052362;28;20268;-67
2022/06/08 03:18:21;;;;;;;7.07;6.47;;;12.10;99.90;;;;;;5048436;28;20227;-67
2022/06/08 03:20:58;;;;;;;8.73;7.00;;;12.00;99.90;;;;;;5045650;28;20249;-67
2022/06/08 03:23:32;;;;;;;7.27;6.57;;;12.00;99.90;;;;;;5050931;28;20237;-67
2022/06/08 03:26:07;;;;;;;8.73;7.03;;;12.10;99.90;;;;;;5051420;28;20234;-67
2022/06/08 03:28:35;;;;;;;9.20;7.00;;;12.00;99.90;;;;;;5052488;28;20318;-67
2022/06/08 03:31:10;;;;;;;8.40;7.57;;;12.10;99.90;;;;;;5047565;28;20326;-66
2022/06/08 03:33:38;;;;;;;7.93;7.13;;;12.00;99.90;;;;;;5051147;28;20232;-67
2022/06/08 03:36:07;;;;;;;8.73;7.83;;;12.10;99.90;;;;;;5052644;28;20227;-67
2022/06/08 03:38:36;;;;;;;11.50;7.53;;;12.10;99.90;;;;;;5050454;28;20231;-67
2022/06/08 03:41:07;;;;;;;8.53;7.67;;;12.10;99.90;;;;;;5048528;28;20720;-67
2022/06/08 03:43:43;;;;;;;8.60;7.63;;;12.10;99.90;;;;;;5050885;28;20582;-67
2022/06/08 03:46:17;;;;;;;7.33;6.63;;;12.20;99.90;;;;;;5051323;28;20234;-67
2022/06/08 03:48:51;;;;;;;8.17;7.37;;;12.20;99.90;;;;;;5050035;28;20239;-67
2022/06/08 03:51:24;;;;;;;8.00;7.20;;;12.20;99.90;;;;;;5065846;28;20229;-67
2022/06/08 03:54:01;;;;;;;8.33;7.53;;;12.30;99.90;;;;;;5051231;28;20732;-67
2022/06/08 03:56:34;;;;;;;8.23;7.43;;;12.40;99.90;;;;;;5040312;28;20231;-67
2022/06/08 03:59:03;;;;;;;7.30;6.60;;;12.40;99.90;;;;;;5050802;28;20650;-67
2022/06/08 04:01:41;;;;;;;8.50;7.17;;;12.50;99.90;;;;;;5050001;28;20709;-67
2022/06/08 04:04:11;;;;;;;9.13;8.00;;;12.60;99.90;;;;;;5051379;28;20281;-67
2022/06/08 04:06:39;;;;;;;9.20;8.30;;;12.60;99.90;;;;;;5050241;28;20637;-67
2022/06/08 04:09:08;;;;;;;10.13;9.10;;;12.70;99.90;;;;;;5050077;28;20253;-68
2022/06/08 04:11:36;;;;;;;10.03;9.03;;;12.80;99.90;;;;;;5050006;28;20372;-67
2022/06/08 04:14:04;;;;;;;9.50;8.50;;;12.90;99.90;;;;;;5050928;28;20678;-67
2022/06/08 04:16:33;;;;;;;10.57;9.63;;;12.90;99.90;;;;;;5052161;28;20215;-67
2022/06/08 04:19:09;;;;;;;12.00;9.47;;;13.00;99.90;;;;;;5048834;28;20254;-67
2022/06/08 04:21:39;;;;;;;10.30;9.27;;;13.00;99.90;;;;;;5056423;28;20216;-67
2022/06/08 04:24:11;;;;;;;10.97;9.87;;;13.00;99.90;;;;;;5051014;28;20285;-67
2022/06/08 04:26:44;;;;;;;11.40;10.20;;;13.10;99.90;;;;;;5061691;28;20246;-67
2022/06/08 04:29:20;;;;;;;12.77;10.53;;;13.10;99.90;;;;;;5047988;28;20241;-67
2022/06/08 04:31:48;;;;;;;11.30;10.00;;;13.20;99.90;;;;;;5049872;28;20569;-66
2022/06/08 04:34:23;;;;;;;11.00;9.90;;;13.40;99.90;;;;;;5050635;28;20255;-67
2022/06/08 04:36:52;;;;;;;13.17;11.43;;;13.50;99.90;;;;;;5059271;28;20326;-66
2022/06/08 04:39:24;;;;;;;12.63;10.80;;;13.50;99.90;;;;;;5045311;28;20318;-67
2022/06/08 04:41:58;;;;;;;12.17;10.87;;;13.70;99.90;;;;;;5050327;28;20234;-67
2022/06/08 04:44:32;;;;;;;10.87;9.77;;;13.80;99.90;;;;;;5050554;28;20586;-66
2022/06/08 04:47:04;;;;;;;11.00;9.90;;;13.90;99.90;;;;;;5050821;28;20215;-67
2022/06/08 04:49:36;;;;;;;12.07;10.17;;;13.90;99.90;;;;;;5047897;28;20249;-67
2022/06/08 04:52:06;;;;;;;12.67;10.63;;;14.00;99.90;;;;;;5049655;28;20259;-66
2022/06/08 04:54:35;;;;;;;11.70;10.23;;;14.30;99.90;;;;;;5050234;28;20250;-67
2022/06/08 04:57:10;;;;;;;13.17;10.20;;;14.40;99.90;;;;;;5049461;28;20230;-67
2022/06/08 04:59:39;;;;;;;10.83;9.70;;;14.50;99.90;;;;;;5047676;28;20626;-67
2022/06/08 05:02:42;;;;;;;11.90;10.10;;;14.60;99.90;;;;;;5053284;28;20238;-67
2022/06/08 05:05:08;;;;;;;11.13;9.57;;;14.80;99.90;;;;;;5053747;28;20224;-67
2022/06/08 05:07:37;;;;;;;13.13;10.17;;;14.90;99.90;;;;;;5053462;28;20311;-67
2022/06/08 05:10:06;;;;;;;11.87;10.67;;;15.10;99.90;;;;;;5051387;28;20305;-67
2022/06/08 05:12:36;;;;;;;10.83;9.73;;;15.20;99.90;;;;;;5055235;28;20232;-66
2022/06/08 05:15:07;;;;;;;10.53;9.43;;;15.40;99.90;;;;;;5053901;28;20255;-67
2022/06/08 05:17:36;;;;;;;10.83;9.57;;;15.60;99.90;;;;;;5053333;28;20231;-66
2022/06/08 05:20:08;;;;;;;16.80;10.33;;;15.60;99.90;;;;;;5050157;28;20282;-67
2022/06/08 05:22:38;;;;;;;10.70;8.90;;;15.60;99.90;;;;;;5053184;28;20230;-66
2022/06/08 05:25:09;;;;;;;11.97;10.77;;;15.50;99.90;;;;;;5053771;28;20314;-66
2022/06/08 05:27:38;;;;;;;10.17;9.17;;;15.40;99.90;;;;;;5053257;28;20277;-66
2022/06/08 05:30:09;;;;;;;10.33;9.30;;;15.40;99.90;;;;;;5050525;28;20270;-66
2022/06/08 05:32:40;;;;;;;12.20;9.23;;;15.50;99.90;;;;;;5049273;28;20289;-66
2022/06/08 05:35:10;;;;;;;11.93;10.30;;;15.70;99.90;;;;;;5040338;28;20224;-67
2022/06/08 05:37:39;;;;;;;12.77;9.87;;;16.00;99.90;;;;;;5041639;28;20319;-66
2022/06/08 05:40:10;;;;;;;12.57;10.13;;;16.00;99.90;;;;;;5045504;28;20228;-66
2022/06/08 05:42:38;;;;;;;13.47;9.80;;;16.00;99.90;;;;;;5042941;28;20224;-67
2022/06/08 05:45:16;;;;;;;12.30;9.83;;;16.40;99.90;;;;;;5050383;28;20699;-66
2022/06/08 05:47:44;;;;;;;12.50;9.30;;;16.70;99.90;;;;;;5037960;28;20297;-66
2022/06/08 05:50:20;;;;;;;10.10;8.90;;;17.10;99.90;;;;;;5034417;28;20231;-67
2022/06/08 05:52:50;;;;;;;10.73;8.97;;;17.10;99.90;;;;;;5036801;28;20231;-67
2022/06/08 05:55:20;;;;;;;9.37;8.30;;;16.80;99.90;;;;;;5026787;28;20627;-67
2022/06/08 05:57:51;;;;;;;10.93;8.80;;;16.70;99.90;;;;;;5024911;28;20697;-66
2022/06/08 06:00:25;;;;;;;9.40;8.23;;;16.70;99.90;;;;;;5024199;28;20239;-67
2022/06/08 06:02:54;;;;;;;11.20;8.53;;;16.70;99.90;;;;;;5024501;28;20236;-66
2022/06/08 06:05:27;;;;;;;10.07;8.67;;;16.70;99.90;;;;;;5012831;28;20221;-67
2022/06/08 06:07:58;;;;;;;12.60;7.87;;;16.60;99.90;;;;;;5000204;28;20229;-67
2022/06/08 06:10:35;;;;;;;12.37;8.63;;;16.50;99.90;;;;;;4999010;28;20724;-67
2022/06/08 06:13:05;;;;;;;10.03;8.43;;;16.40;99.90;;;;;;5032525;28;20232;-68
2022/06/08 06:15:47;;;;;;;11.53;9.43;;;16.40;99.90;;;;;;4999778;28;20684;-68
2022/06/08 06:18:17;;;;;;;15.50;9.30;;;16.90;99.90;;;;;;5000527;28;20250;-67
2022/06/08 06:20:55;;;;;;;10.60;9.13;;;17.20;99.90;;;;;;5000646;28;20244;-67
2022/06/08 06:23:29;;;;;;;12.87;8.70;;;17.50;99.90;;;;;;5014120;28;20240;-67
2022/06/08 06:26:10;;;;;;;11.00;8.57;;;18.00;99.90;;;;;;5029861;28;20585;-67
2022/06/08 06:29:04;;;;;;;11.50;8.50;;;18.20;99.90;;;;;;5002186;28;20230;-67
2022/06/08 06:31:42;;;;;;;10.47;8.23;;;18.60;99.90;;;;;;5030355;28;20230;-67
2022/06/08 06:34:19;;;;;;;9.90;7.73;;;18.40;99.90;;;;;;5000750;28;20237;-67
2022/06/08 06:36:53;;;;;;;9.87;7.83;;;18.30;99.90;;;;;;5000408;28;20224;-67
2022/06/08 06:39:26;;;;;;;9.77;7.73;;;18.10;99.90;;;;;;4999084;28;20258;-66
2022/06/08 06:42:01;;;;;;;10.90;7.90;;;17.90;99.90;;;;;;5001059;28;20244;-67
2022/06/08 06:44:36;;;;;;;10.30;8.33;;;17.80;99.90;;;;;;4998221;28;20216;-67
2022/06/08 06:47:14;;;;;;;9.17;7.00;;;17.60;99.90;;;;;;5002080;28;20239;-66
2022/06/08 06:49:50;;;;;;;9.73;7.17;;;17.50;99.90;;;;;;5000837;28;20707;-67
2022/06/08 06:52:20;;;;;;;9.23;7.17;;;17.40;99.90;;;;;;5003212;28;20239;-68
2022/06/08 06:54:50;;;;;;;9.53;6.67;;;17.40;99.90;;;;;;5011386;28;20757;-67
2022/06/08 06:57:18;;;;;;;10.00;6.63;;;17.40;99.90;;;;;;5004101;28;20385;-66
2022/06/08 06:59:46;;;;;;;8.70;7.10;;;17.40;99.90;;;;;;4999723;28;20610;-67
2022/06/08 07:02:17;;;;;;;8.70;6.47;;;17.40;99.90;;;;;;5014239;28;20244;-66
2022/06/08 07:04:47;;;;;;;7.97;6.73;;;17.30;99.90;;;;;;5000742;28;20698;-67
2022/06/08 07:07:16;;;;;;;9.07;7.07;;;17.30;99.90;;;;;;5002170;28;20369;-66
2022/06/08 07:09:46;;;;;;;9.50;6.93;;;17.40;99.90;;;;;;5000025;28;20787;-67
2022/06/08 07:12:14;;;;;;;9.13;6.70;;;17.50;99.90;;;;;;5000564;28;20232;-66
2022/06/08 07:14:52;;;;;;;8.30;6.40;;;17.60;99.90;;;;;;4999409;28;20323;-67
2022/06/08 07:17:21;;;;;;;7.90;6.63;;;17.60;99.90;;;;;;5001058;28;20315;-68
2022/06/08 07:19:49;;;;;;;8.53;7.60;;;17.70;99.90;;;;;;4998569;28;20246;-67
2022/06/08 07:22:18;;;;;;;8.80;7.17;;;17.60;99.90;;;;;;5000621;28;20326;-68
2022/06/08 07:24:48;;;;;;;9.83;7.20;;;17.50;99.90;;;;;;5003704;28;20666;-67
2022/06/08 07:27:16;;;;;;;8.07;7.07;;;17.40;99.90;;;;;;5006483;28;20743;-67
2022/06/08 07:29:45;;;;;;;10.20;6.43;;;17.50;99.90;;;;;;5004301;28;20341;-67
2022/06/08 07:32:13;;;;;;;7.80;6.40;;;17.60;99.90;;;;;;5001669;28;20726;-68
2022/06/08 07:34:41;;;;;;;9.57;7.20;;;17.80;99.90;;;;;;5001374;28;20231;-67
2022/06/08 07:37:10;;;;;;;10.07;7.20;;;17.80;99.90;;;;;;5002775;28;20235;-67
2022/06/08 07:39:38;;;;;;;9.10;7.53;;;17.80;99.90;;;;;;5000714;28;20234;-67
2022/06/08 07:42:08;;;;;;;8.80;7.03;;;17.90;99.90;;;;;;5002607;28;20234;-67
2022/06/08 07:44:36;;;;;;;9.53;7.43;;;18.10;99.90;;;;;;5006679;28;20880;-67
2022/06/08 07:47:05;;;;;;;8.20;7.30;;;18.30;99.90;;;;;;5003332;28;20231;-67
2022/06/08 07:49:39;;;;;;;9.10;7.30;;;18.60;99.90;;;;;;5001980;28;20343;-67
2022/06/08 07:52:10;;;;;;;9.40;7.80;;;18.70;99.90;;;;;;5003879;28;20927;-68
2022/06/08 07:54:39;;;;;;;8.60;6.33;;;18.90;99.90;;;;;;5002176;28;20361;-67
2022/06/08 07:57:09;;;;;;;9.00;7.30;;;19.30;99.90;;;;;;5002432;28;20323;-68
2022/06/08 07:59:38;;;;;;;8.20;7.50;;;19.20;99.90;;;;;;4999728;28;20227;-67
2022/06/08 08:02:08;;;;;;;7.70;6.33;;;19.40;99.90;;;;;;5003711;28;20559;-66
2022/06/08 08:04:37;;;;;;;8.07;6.60;;;19.70;99.90;;;;;;5001892;28;20247;-68
2022/06/08 08:07:08;;;;;;;7.00;6.30;;;20.20;99.90;;;;;;5001007;28;20275;-67
2022/06/08 08:09:37;;;;;;;8.87;6.53;;;20.50;99.90;;;;;;4999895;28;20293;-66
2022/06/08 08:12:10;;;;;;;7.03;6.23;;;21.10;99.90;;;;;;5003098;28;20259;-66
2022/06/08 08:14:38;;;;;;;6.70;6.10;;;21.80;99.90;;;;;;5002292;28;20236;-67
2022/06/08 08:17:06;;;;;;;6.80;6.20;;;22.20;99.90;;;;;;5001984;28;20217;-66
2022/06/08 08:19:38;;;;;;;6.97;6.27;;;22.50;99.90;;;;;;4999363;28;20251;-67
2022/06/08 08:22:07;;;;;;;7.07;6.37;;;22.70;99.90;;;;;;5001746;28;20247;-66
2022/06/08 08:24:35;;;;;;;7.80;6.77;;;23.00;99.90;;;;;;5000790;28;20230;-67
2022/06/08 08:27:04;;;;;;;8.17;6.80;;;23.40;99.90;;;;;;5005274;28;20237;-67
2022/06/08 08:29:34;;;;;;;10.33;7.73;;;23.50;99.90;;;;;;5005014;28;20239;-68
2022/06/08 08:32:02;;;;;;;8.83;7.17;;;23.20;99.90;;;;;;5005595;28;20720;-67
2022/06/08 08:34:30;;;;;;;11.63;7.53;;;23.30;99.90;;;;;;5006355;28;20939;-67
2022/06/08 08:36:59;;;;;;;11.53;8.47;;;23.30;99.90;;;;;;5009409;28;20749;-67
2022/06/08 08:39:27;;;;;;;8.87;7.57;;;23.30;99.90;;;;;;5008943;28;20247;-66
2022/06/08 08:44:43;;;;;;;6.60;6.00;;;23.50;99.90;;;;;;5007754;28;20304;-67
2022/06/08 08:47:27;;;;;;;10.10;7.37;;;23.90;99.90;;;;;;5009371;28;20865;-66
2022/06/08 08:49:58;;;;;;;7.60;6.80;;;23.80;99.90;;;;;;5007177;28;20322;-66
2022/06/08 08:52:35;;;;;;;8.83;7.80;;;24.10;99.90;;;;;;5006055;28;20237;-67
2022/06/08 08:55:12;;;;;;;10.80;7.87;;;24.00;99.90;;;;;;5003641;28;20247;-66
2022/06/08 08:57:45;;;;;;;7.40;6.63;;;24.10;99.90;;;;;;5004534;28;20260;-67
2022/06/08 09:00:25;;;;;;;7.63;6.33;;;24.20;99.90;;;;;;5004349;28;20830;-66
2022/06/08 09:05:42;;;;;;;6.97;6.13;;;24.60;99.90;;;;;;5008236;28;20260;-67
2022/06/08 09:08:11;;;;;;;7.43;6.53;;;24.90;99.90;;;;;;5008227;28;20234;-67
2022/06/08 09:10:40;;;;;;;11.10;6.80;;;24.80;99.90;;;;;;5007863;28;20770;-67
2022/06/08 09:13:11;;;;;;;8.23;6.23;;;25.00;99.90;;;;;;5007557;28;20242;-67
2022/06/08 09:15:49;;;;;;;7.30;6.60;;;25.30;99.90;;;;;;5006735;28;20651;-67
2022/06/08 09:18:29;;;;;;;8.03;7.23;;;25.70;99.90;;;;;;5006930;28;20323;-67
2022/06/08 09:20:57;;;;;;;8.93;7.07;;;25.60;99.90;;;;;;5006759;28;20254;-67
2022/06/08 09:23:37;;;;;;;9.50;8.33;;;25.30;99.90;;;;;;5008281;28;20601;-66
2022/06/08 09:26:10;;;;;;;9.53;8.07;;;25.20;99.90;;;;;;5005009;28;20235;-67
2022/06/08 09:28:41;;;;;;;9.07;8.17;;;25.00;99.90;;;;;;5004031;28;20234;-67
2022/06/08 09:31:25;;;;;;;8.30;6.80;;;24.90;99.90;;;;;;5002586;28;20266;-67
2022/06/08 09:34:13;;;;;;;18.17;8.60;;;24.80;99.90;;;;;;5002085;28;20232;-66
2022/06/08 09:36:42;;;;;;;13.60;9.43;;;24.90;99.90;;;;;;5003738;28;20228;-67
2022/06/08 09:39:12;;;;;;;12.13;10.27;;;24.70;99.90;;;;;;5002933;28;20239;-67
2022/06/08 09:41:48;;;;;;;13.10;9.53;;;24.50;99.90;;;;;;5004074;28;21299;-67
2022/06/08 09:44:21;;;;;;;11.77;10.57;;;24.30;99.90;;;;;;5005075;28;20239;-68
2022/06/08 09:53:01;;;;;;;11.73;10.63;;;24.10;99.90;;;;;;5004714;28;20676;-67
2022/06/08 09:55:41;;;;;;;10.53;9.43;;;24.00;99.90;;;;;;5004323;28;20312;-68
2022/06/08 09:58:28;;;;;;;10.83;9.73;;;23.80;99.90;;;;;;5005698;28;20233;-68
2022/06/08 10:01:05;;;;;;;9.97;9.03;;;23.90;99.90;;;;;;5005433;28;20694;-66
2022/06/08 10:04:03;;;;;;;10.33;9.30;;;24.00;99.90;;;;;;5004526;28;20246;-66
2022/06/08 10:06:40;;;;;;;11.83;8.73;;;24.20;99.90;;;;;;5002545;28;20605;-67
2022/06/08 10:09:18;;;;;;;9.47;8.57;;;24.40;99.90;;;;;;5002591;28;20677;-67
2022/06/08 10:11:54;;;;;;;12.17;9.10;;;24.60;99.90;;;;;;5004082;28;20726;-67
2022/06/08 10:14:31;;;;;;;10.53;8.33;;;24.70;99.90;;;;;;5003489;28;20234;-68
2022/06/08 10:17:06;;;;;;;8.83;7.83;;;25.10;99.90;;;;;;5003953;28;20244;-67
2022/06/08 10:19:43;;;;;;;9.00;7.87;;;24.80;99.90;;;;;;5001789;28;20749;-67
2022/06/08 10:22:12;;;;;;;10.47;8.77;;;24.80;99.90;;;;;;5003874;28;20227;-67
2022/06/08 10:24:53;;;;;;;8.07;7.10;;;25.30;99.90;;;;;;5002376;28;20219;-67
2022/06/08 10:27:25;;;;;;;9.07;8.17;;;25.60;99.90;;;;;;5005255;28;20239;-68
2022/06/08 10:30:04;;;;;;;10.70;9.70;;;25.80;99.90;;;;;;5003036;28;20279;-67
2022/06/08 10:32:38;;;;;;;7.93;7.10;;;25.60;99.90;;;;;;5013840;28;20238;-66
2022/06/08 10:35:19;;;;;;;8.87;8.03;;;26.00;99.90;;;;;;5027829;28;20282;-68
2022/06/08 10:37:48;;;;;;;8.00;7.20;;;25.80;99.90;;;;;;5003261;28;20672;-68
2022/06/08 10:40:22;;;;;;;8.40;7.50;;;25.80;99.90;;;;;;5029543;28;20493;-68
2022/06/08 10:42:52;;;;;;;8.40;7.60;;;25.90;99.90;;;;;;5003606;28;20235;-67
2022/06/08 10:45:36;;;;;;;9.43;6.43;;;25.80;99.90;;;;;;5003073;28;20239;-67
2022/06/08 10:48:42;;;;;;;7.60;6.73;;;25.90;99.90;;;;;;5003443;28;20703;-68
2022/06/08 10:51:41;;;;;;;7.93;7.23;;;25.90;99.90;;;;;;4992611;28;20240;-68
2022/06/08 10:54:54;;;;;;;8.17;7.20;;;25.90;99.90;;;;;;5002479;28;20617;-66
2022/06/08 10:57:49;;;;;;;7.03;6.30;;;25.50;99.90;;;;;;5030510;28;20235;-68
2022/06/08 11:00:51;;;;;;;6.43;5.77;;;25.40;99.90;;;;;;5001319;28;20322;-67
2022/06/08 11:03:34;;;;;;;7.53;6.83;;;25.20;99.90;;;;;;5006260;28;20259;-68
2022/06/08 11:06:02;;;;;;;6.87;6.27;;;25.00;99.90;;;;;;5015733;28;20234;-67
2022/06/08 11:08:51;;;;;;;8.37;7.50;;;24.90;99.90;;;;;;5019312;28;20235;-68
2022/06/08 11:11:41;;;;;;;7.73;7.03;;;25.00;99.90;;;;;;5018423;28;20233;-67
2022/06/08 11:14:30;;;;;;;9.83;8.53;;;24.90;99.90;;;;;;5016085;28;20341;-67
2022/06/08 11:17:04;;;;;;;7.63;6.83;;;25.00;99.90;;;;;;5017843;28;20711;-67
2022/06/08 11:19:35;;;;;;;8.73;6.93;;;25.30;99.90;;;;;;5015907;28;20317;-67
2022/06/08 11:22:10;;;;;;;8.23;7.50;;;25.40;99.90;;;;;;5018770;28;20230;-68
2022/06/08 11:24:43;;;;;;;7.37;6.67;;;25.10;99.90;;;;;;5014915;28;20222;-67
2022/06/08 11:27:29;;;;;;;9.53;7.03;;;24.80;99.90;;;;;;5018070;28;20280;-67
2022/06/08 11:29:59;;;;;;;7.70;7.00;;;24.50;99.90;;;;;;5015445;28;20804;-67
2022/06/08 11:33:03;;;;;;;7.73;6.97;;;24.30;99.90;;;;;;5017734;28;20345;-67
2022/06/08 11:35:54;;;;;;;8.93;7.43;;;24.10;99.90;;;;;;5015053;28;20222;-67
2022/06/08 11:38:35;;;;;;;8.90;7.67;;;24.20;99.90;;;;;;5018349;28;20645;-68
2022/06/08 11:41:29;;;;;;;9.20;8.17;;;24.40;99.90;;;;;;5015877;28;20284;-66
2022/06/08 11:43:57;;;;;;;8.20;6.97;;;25.00;99.90;;;;;;5019631;28;20242;-68
2022/06/08 11:46:32;;;;;;;8.57;7.77;;;25.20;99.90;;;;;;5020818;28;20228;-67
2022/06/08 11:49:00;;;;;;;10.13;7.37;;;25.20;99.90;;;;;;5020163;28;20248;-68
2022/06/08 11:51:32;;;;;;;8.87;7.97;;;25.00;99.90;;;;;;5018772;28;20698;-67
2022/06/08 11:54:05;;;;;;;8.37;7.57;;;24.90;99.90;;;;;;5015467;28;21211;-67
2022/06/08 11:56:53;;;;;;;8.70;7.77;;;25.20;99.90;;;;;;5017634;28;20223;-68
2022/06/08 11:59:21;;;;;;;8.23;7.43;;;25.10;99.90;;;;;;5015496;28;20310;-67
2022/06/08 12:01:53;;;;;;;8.53;7.70;;;25.00;99.90;;;;;;5029408;28;20744;-67
2022/06/08 12:04:25;;;;;;;8.47;7.67;;;24.80;99.90;;;;;;5035933;28;20274;-66
2022/06/08 12:06:56;;;;;;;8.60;7.53;;;24.90;99.90;;;;;;5037859;28;20648;-67
2022/06/08 12:09:28;;;;;;;8.73;7.63;;;24.90;99.90;;;;;;5036946;28;21646;-67
2022/06/08 12:12:04;;;;;;;7.93;7.13;;;25.10;99.90;;;;;;5042642;28;20230;-67
2022/06/08 12:14:35;;;;;;;8.60;7.70;;;25.10;99.90;;;;;;5039443;28;20221;-66
2022/06/08 12:17:06;;;;;;;10.00;9.00;;;25.10;99.90;;;;;;5041908;28;20654;-66
2022/06/08 12:19:42;;;;;;;8.40;7.63;;;24.90;99.90;;;;;;5037780;28;20701;-67
2022/06/08 12:22:18;;;;;;;7.70;6.40;;;24.80;99.90;;;;;;5041228;28;20713;-68
2022/06/08 12:25:05;;;;;;;7.67;6.87;;;24.90;99.90;;;;;;5039844;28;20240;-67
2022/06/08 12:27:43;;;;;;;6.97;6.03;;;25.00;99.90;;;;;;5041654;28;20692;-66
2022/06/08 12:30:23;;;;;;;8.47;7.30;;;25.40;99.90;;;;;;5039034;28;20259;-66
2022/06/08 12:32:54;;;;;;;7.63;6.93;;;25.40;99.90;;;;;;5024067;28;20326;-66
2022/06/08 12:35:32;;;;;;;7.33;6.67;;;25.40;99.90;;;;;;5022190;28;20270;-66
2022/06/08 12:38:20;;;;;;;7.00;6.30;;;25.30;99.90;;;;;;5021773;28;20641;-66
2022/06/08 12:41:02;;;;;;;6.37;5.77;;;25.50;99.90;;;;;;5023771;28;20231;-67
2022/06/08 12:43:46;;;;;;;6.83;6.13;;;25.40;99.90;;;;;;5024016;28;20246;-67
2022/06/08 12:46:31;;;;;;;6.93;6.20;;;25.40;99.90;;;;;;5024286;28;20238;-67
2022/06/08 12:49:04;;;;;;;9.20;8.30;;;25.80;99.90;;;;;;5023387;28;20331;-68
2022/06/08 12:51:38;;;;;;;7.73;6.93;;;25.80;99.90;;;;;;5026174;28;20769;-66
2022/06/08 12:54:13;;;;;;;7.33;6.73;;;25.90;99.90;;;;;;5020817;28;20787;-67
2022/06/08 12:56:43;;;;;;;7.70;7.00;;;26.00;99.90;;;;;;5024779;28;20899;-66
2022/06/08 12:59:13;;;;;;;8.13;7.33;;;26.00;99.90;;;;;;5024641;28;20232;-67
2022/06/08 13:01:44;;;;;;;6.63;6.03;;;25.90;99.90;;;;;;5032632;28;20238;-67
2022/06/08 13:04:15;;;;;;;6.67;5.97;;;25.80;99.90;;;;;;5038355;28;20241;-66
2022/06/08 13:06:43;;;;;;;6.50;5.90;;;25.90;99.90;;;;;;5040563;28;20226;-66
2022/06/08 13:09:14;;;;;;;6.77;5.73;;;25.70;99.90;;;;;;5038446;28;20932;-67
2022/06/08 13:11:45;;;;;;;5.90;5.37;;;25.60;99.90;;;;;;5038629;28;20238;-66
2022/06/08 13:14:20;;;;;;;7.27;6.57;;;25.60;99.90;;;;;;5037652;28;20613;-66
2022/06/08 13:16:49;;;;;;;7.33;6.67;;;25.60;99.90;;;;;;5039067;28;20269;-66
2022/06/08 13:19:18;;;;;;;6.13;5.53;;;25.30;99.90;;;;;;5038352;28;20265;-67
2022/06/08 13:21:49;;;;;;;6.13;5.53;;;25.40;99.90;;;;;;5040556;28;20250;-67
2022/06/08 13:24:18;;;;;;;6.03;5.53;;;25.20;99.90;;;;;;5036756;28;20268;-66
2022/06/08 13:26:48;;;;;;;5.37;4.87;;;25.20;99.90;;;;;;5039466;28;20229;-66
2022/06/08 13:29:18;;;;;;;7.30;6.60;;;25.30;99.90;;;;;;5037954;28;20237;-67
2022/06/08 13:31:46;;;;;;;5.90;5.40;;;25.20;99.90;;;;;;5039531;28;20850;-66
2022/06/08 13:34:15;;;;;;;6.97;6.20;;;25.20;99.90;;;;;;5037248;28;20700;-66
2022/06/08 13:36:53;;;;;;;6.23;5.63;;;25.20;99.90;;;;;;5040023;28;20304;-66